Time;durP1;ratioP1;P1;durP2;ratioP2;P2;SDS_P1;SDS_P2;PMS_P1;PMS_P2;Temp;Humidity;BMP_temperature;BMP_pressure;BME280_temperature;BME280_humidity;BME280_pressure;Samples;Min_cycle;Max_cycle;Signal;HPM_P1;HPM_P2
2022/04/08 00:01:53;;;;;;;6.95;4.08;;;;;;;13.93;46.20;96884.44;1727341;82;21093;-66
2022/04/08 00:04:20;;;;;;;5.47;4.20;;;;;;;13.87;46.32;96888.14;1727720;81;21326;-65
2022/04/08 00:06:49;;;;;;;5.90;4.42;;;;;;;13.82;46.46;96882.20;1727942;82;21053;-64
2022/04/08 00:09:17;;;;;;;5.70;4.17;;;;;;;13.78;46.66;96882.96;1724803;83;21537;-63
2022/04/08 00:11:45;;;;;;;11.15;4.30;;;;;;;13.73;46.66;96880.24;1727245;82;21004;-64
2022/04/08 00:14:12;;;;;;;5.72;4.22;;;;;;;13.70;46.73;96878.88;1727763;82;21017;-65
2022/04/08 00:16:39;;;;;;;6.50;4.85;;;;;;;13.66;46.87;96883.09;1727530;82;21255;-66
2022/04/08 00:19:07;;;;;;;4.45;3.90;;;;;;;13.65;47.13;96884.70;1724679;83;20990;-65
2022/04/08 00:21:34;;;;;;;5.55;4.00;;;;;;;13.61;47.10;96886.53;1727499;82;21026;-66
2022/04/08 00:24:02;;;;;;;5.53;3.95;;;;;;;13.55;47.19;96888.89;1727656;82;21080;-64
2022/04/08 00:26:29;;;;;;;5.35;3.85;;;;;;;13.52;47.45;96877.90;1727549;82;20954;-64
2022/04/08 00:28:56;;;;;;;4.92;3.98;;;;;;;13.48;47.52;96880.25;1725116;82;21222;-66
2022/04/08 00:31:26;;;;;;;5.25;3.67;;;;;;;13.43;47.67;96866.84;1727538;82;21504;-64
2022/04/08 00:33:53;;;;;;;7.28;4.40;;;;;;;13.42;47.78;96882.61;1727870;82;21037;-65
2022/04/08 00:36:21;;;;;;;6.35;4.40;;;;;;;13.34;47.98;96874.23;1726802;82;21055;-63
2022/04/08 00:38:48;;;;;;;6.40;3.72;;;;;;;13.30;48.11;96883.25;1727072;82;20903;-66
2022/04/08 00:41:16;;;;;;;7.03;4.00;;;;;;;13.26;48.17;96876.81;1727591;82;22164;-65
2022/04/08 00:43:44;;;;;;;5.62;3.80;;;;;;;13.28;48.15;96863.20;1724086;82;21021;-65
2022/04/08 00:46:11;;;;;;;6.80;4.05;;;;;;;13.28;48.17;96859.20;1726710;82;20899;-66
2022/04/08 00:48:38;;;;;;;6.05;4.53;;;;;;;13.28;48.22;96866.69;1727761;82;21006;-64
2022/04/08 00:51:06;;;;;;;8.45;3.90;;;;;;;13.27;48.22;96869.62;1727518;82;21046;-65
2022/04/08 00:53:37;;;;;;;5.92;3.70;;;;;;;13.26;48.21;96858.65;1721218;82;21246;-63
2022/04/08 00:56:05;;;;;;;5.97;4.00;;;;;;;13.23;48.31;96867.97;1727660;82;20951;-66
2022/04/08 00:58:35;;;;;;;8.45;4.30;;;;;;;13.18;48.50;96863.91;1705353;84;20990;-62
2022/04/08 01:01:03;;;;;;;5.20;4.25;;;;;;;13.16;48.54;96866.02;1726316;82;21012;-66
2022/04/08 01:03:31;;;;;;;6.30;4.40;;;;;;;13.12;48.67;96848.88;1721127;83;22275;-65
2022/04/08 01:06:00;;;;;;;7.42;3.87;;;;;;;13.08;48.78;96847.77;1752385;81;21261;-64
2022/04/08 01:08:28;;;;;;;5.70;3.75;;;;;;;13.06;48.86;96833.84;1759018;81;21027;-64
2022/04/08 01:10:56;;;;;;;7.30;3.87;;;;;;;13.02;48.92;96840.72;1759034;81;21082;-67
2022/04/08 01:13:23;;;;;;;6.60;4.28;;;;;;;12.99;49.00;96847.36;1749125;81;21122;-66
2022/04/08 01:15:51;;;;;;;7.40;4.47;;;;;;;12.98;49.02;96840.40;1759093;81;21018;-63
2022/04/08 01:18:18;;;;;;;5.35;4.30;;;;;;;12.92;49.28;96837.41;1758718;80;21225;-65
2022/04/08 01:20:46;;;;;;;5.90;3.92;;;;;;;12.93;49.16;96840.89;1758324;81;20899;-67
2022/04/08 01:23:16;;;;;;;6.33;3.90;;;;;;;12.96;49.07;96849.70;1759126;81;21041;-65
2022/04/08 01:25:44;;;;;;;5.15;3.67;;;;;;;12.98;49.05;96852.96;1759164;81;20907;-63
2022/04/08 01:28:11;;;;;;;8.53;4.35;;;;;;;12.98;49.03;96856.41;1758757;81;20900;-63
2022/04/08 01:30:40;;;;;;;7.62;3.87;;;;;;;12.97;49.04;96851.34;1758332;81;21215;-64
2022/04/08 01:33:07;;;;;;;8.43;4.20;;;;;;;12.91;49.23;96857.66;1750895;81;20963;-63
2022/04/08 01:35:34;;;;;;;8.23;4.30;;;;;;;12.90;49.20;96854.72;1758618;81;21031;-65
2022/04/08 01:38:01;;;;;;;8.73;4.80;;;;;;;12.84;49.46;96851.70;1758245;81;21097;-64
2022/04/08 01:40:30;;;;;;;9.63;4.33;;;;;;;12.77;49.71;96843.09;1759139;81;21516;-65
2022/04/08 01:42:58;;;;;;;8.05;4.37;;;;;;;12.76;49.72;96846.80;1755305;81;21908;-66
2022/04/08 01:45:25;;;;;;;8.70;4.60;;;;;;;12.73;49.79;96837.95;1758747;81;21481;-67
2022/04/08 01:47:52;;;;;;;6.45;4.50;;;;;;;12.71;49.85;96833.39;1757822;81;20915;-65
2022/04/08 01:50:21;;;;;;;6.33;4.00;;;;;;;12.70;49.85;96839.77;1753614;81;21315;-66
2022/04/08 01:52:49;;;;;;;10.15;5.10;;;;;;;12.65;50.05;96844.52;1759159;81;21446;-64
2022/04/08 01:55:16;;;;;;;5.95;4.50;;;;;;;12.62;50.19;96838.34;1759149;81;21152;-66
2022/04/08 01:57:44;;;;;;;6.75;4.12;;;;;;;12.63;50.09;96843.15;1759384;81;21062;-65
2022/04/08 02:00:13;;;;;;;10.70;4.45;;;;;;;12.62;50.12;96845.55;1753895;80;20987;-63
2022/04/08 02:02:40;;;;;;;5.75;4.50;;;;;;;12.64;50.13;96841.59;1758770;81;20951;-63
2022/04/08 02:05:08;;;;;;;6.22;4.72;;;;;;;12.69;50.12;96839.51;1756586;81;21484;-67
2022/04/08 02:07:36;;;;;;;9.45;5.03;;;;;;;12.71;50.16;96833.39;1753633;81;21157;-65
2022/04/08 02:10:05;;;;;;;7.08;4.62;;;;;;;12.71;50.27;96822.20;1756790;81;21178;-65
2022/04/08 02:12:34;;;;;;;6.53;5.05;;;;;;;12.70;50.38;96824.58;1756408;81;21546;-66
2022/04/08 02:15:01;;;;;;;11.00;5.05;;;;;;;12.68;50.54;96820.02;1756700;81;21122;-64
2022/04/08 02:17:31;;;;;;;8.20;4.53;;;;;;;12.68;50.51;96805.35;1753553;81;21623;-63
2022/04/08 02:19:59;;;;;;;10.30;5.22;;;;;;;12.67;50.54;96804.28;1756075;81;21259;-66
2022/04/08 02:22:31;;;;;;;10.45;4.72;;;;;;;12.70;50.57;96806.42;1755593;81;21476;-65
2022/04/08 02:24:58;;;;;;;7.97;4.30;;;;;;;12.67;50.69;96799.73;1756034;81;20895;-65
2022/04/08 02:27:28;;;;;;;7.92;4.10;;;;;;;12.68;50.71;96798.69;1755458;81;21524;-64
2022/04/08 02:29:58;;;;;;;8.23;4.25;;;;;;;12.74;50.80;96800.37;1756125;81;21050;-66
2022/04/08 02:32:26;;;;;;;5.62;4.03;;;;;;;12.75;50.88;96797.16;1755854;81;21224;-66
2022/04/08 02:34:54;;;;;;;7.72;4.45;;;;;;;12.75;50.89;96797.96;1755780;81;21492;-66
2022/04/08 02:37:23;;;;;;;6.53;4.08;;;;;;;12.74;50.96;96801.70;1755541;81;20915;-65
2022/04/08 02:39:52;;;;;;;7.30;4.33;;;;;;;12.76;50.94;96796.11;1755874;81;21006;-65
2022/04/08 02:42:21;;;;;;;8.73;4.47;;;;;;;12.79;50.90;96803.09;1755685;81;21154;-66
2022/04/08 02:44:48;;;;;;;7.10;3.62;;;;;;;12.77;50.93;96799.88;1755900;81;21133;-64
2022/04/08 02:47:17;;;;;;;8.20;3.90;;;;;;;12.74;51.02;96807.05;1755935;81;20942;-67
2022/04/08 02:49:45;;;;;;;6.00;3.60;;;;;;;12.72;51.00;96797.13;1756637;81;20930;-65
2022/04/08 02:52:14;;;;;;;8.38;4.05;;;;;;;12.69;51.07;96795.50;1754925;81;20981;-64
2022/04/08 02:54:41;;;;;;;5.40;3.50;;;;;;;12.66;51.19;96788.80;1755805;81;21057;-64
2022/04/08 02:57:08;;;;;;;9.58;4.35;;;;;;;12.69;51.16;96798.98;1755583;81;21287;-63
2022/04/08 02:59:35;;;;;;;7.70;4.10;;;;;;;12.68;51.20;96800.02;1756452;81;20985;-67
2022/04/08 03:02:03;;;;;;;7.65;3.80;;;;;;;12.65;51.35;96793.03;1755767;81;21044;-64
2022/04/08 03:04:30;;;;;;;6.05;3.92;;;;;;;12.63;51.35;96791.95;1752691;81;20978;-63
2022/04/08 03:07:01;;;;;;;8.05;4.58;;;;;;;12.60;51.42;96782.30;1727268;82;20943;-67
2022/04/08 03:09:29;;;;;;;8.55;4.17;;;;;;;12.63;51.45;96777.81;1727600;82;21394;-66
2022/04/08 03:11:56;;;;;;;7.33;3.80;;;;;;;12.64;51.53;96775.44;1728026;82;20971;-66
2022/04/08 03:14:27;;;;;;;7.17;4.05;;;;;;;12.64;51.55;96782.09;1727737;82;20997;-66
2022/04/08 03:16:53;;;;;;;7.60;4.62;;;;;;;12.67;51.59;96773.61;1725065;82;20958;-62
2022/04/08 03:19:22;;;;;;;6.17;4.62;;;;;;;12.67;51.55;96774.39;1727862;82;20928;-65
2022/04/08 03:21:49;;;;;;;7.55;4.20;;;;;;;12.66;51.62;96776.80;1727396;82;21893;-64
2022/04/08 03:24:17;;;;;;;7.90;4.10;;;;;;;12.66;51.70;96771.98;1727619;82;21011;-65
2022/04/08 03:26:48;;;;;;;10.08;4.20;;;;;;;12.65;51.78;96769.02;1725127;82;20946;-65
2022/04/08 03:29:15;;;;;;;9.38;4.78;;;;;;;12.67;51.79;96770.39;1727892;82;21028;-64
2022/04/08 03:31:43;;;;;;;7.25;4.83;;;;;;;12.66;51.93;96775.46;1727923;82;21627;-64
2022/04/08 03:34:11;;;;;;;5.60;4.15;;;;;;;12.66;52.02;96783.98;1716482;82;21227;-64
2022/04/08 03:36:39;;;;;;;8.90;4.45;;;;;;;12.62;52.11;96786.33;1724976;83;20891;-66
2022/04/08 03:39:06;;;;;;;7.80;4.67;;;;;;;12.62;52.13;96778.88;1727703;82;20907;-68
2022/04/08 03:41:33;;;;;;;7.75;4.22;;;;;;;12.61;52.21;96785.26;1727412;82;21066;-66
2022/04/08 03:44:01;;;;;;;7.22;4.25;;;;;;;12.58;52.28;96787.08;1727321;82;21485;-64
2022/04/08 03:46:28;;;;;;;6.92;4.12;;;;;;;12.59;52.27;96783.38;1725099;83;21310;-63
2022/04/08 03:48:55;;;;;;;6.45;4.40;;;;;;;12.57;52.55;96784.13;1728015;82;20922;-67
2022/04/08 03:51:23;;;;;;;5.47;4.00;;;;;;;12.56;52.57;96788.67;1727806;82;21488;-64
2022/04/08 03:53:50;;;;;;;5.97;3.72;;;;;;;12.59;52.58;96794.04;1726426;82;21007;-66
2022/04/08 03:56:18;;;;;;;5.87;4.20;;;;;;;12.65;52.49;96801.03;1727663;82;20935;-65
2022/04/08 03:58:45;;;;;;;7.03;4.60;;;;;;;12.65;52.59;96794.36;1727951;82;22241;-63
2022/04/08 04:01:14;;;;;;;6.85;3.80;;;;;;;12.65;52.67;96793.03;1727583;82;20986;-67
2022/04/08 04:03:41;;;;;;;5.45;2.95;;;;;;;12.67;52.61;96794.39;1727089;82;20976;-63
2022/04/08 04:06:09;;;;;;;5.95;4.20;;;;;;;12.69;52.64;96796.83;1721611;81;21138;-67
2022/04/08 04:08:37;;;;;;;10.38;4.03;;;;;;;12.72;52.64;96795.79;1738192;81;21017;-66
2022/04/08 04:11:05;;;;;;;8.43;3.95;;;;;;;12.80;52.56;96790.57;1739149;81;21298;-63
2022/04/08 04:13:32;;;;;;;6.47;4.03;;;;;;;12.85;52.54;96795.41;1737186;81;21368;-65
2022/04/08 04:15:59;;;;;;;8.30;4.45;;;;;;;12.91;52.48;96794.95;1737471;82;21440;-66
2022/04/08 04:18:27;;;;;;;5.22;3.90;;;;;;;12.97;52.45;96799.30;1738146;81;20938;-63
2022/04/08 04:20:54;;;;;;;7.22;4.50;;;;;;;12.99;52.49;96812.67;1739007;81;21070;-65
2022/04/08 04:23:21;;;;;;;6.28;3.77;;;;;;;13.06;52.50;96806.34;1738246;81;21210;-63
2022/04/08 04:25:49;;;;;;;6.00;4.33;;;;;;;13.11;52.48;96801.91;1738029;81;21422;-64
2022/04/08 04:28:16;;;;;;;7.22;4.35;;;;;;;13.16;52.43;96805.96;1738641;81;20934;-64
2022/04/08 04:30:43;;;;;;;7.53;4.83;;;;;;;13.22;52.49;96802.27;1737691;81;20934;-63
2022/04/08 04:33:11;;;;;;;5.97;4.75;;;;;;;13.25;52.55;96800.95;1726984;81;20891;-64
2022/04/08 04:35:38;;;;;;;5.60;4.22;;;;;;;13.31;52.63;96803.45;1738079;81;21876;-64
2022/04/08 04:38:06;;;;;;;11.12;4.75;;;;;;;13.34;52.66;96802.95;1738157;81;20946;-66
2022/04/08 04:40:34;;;;;;;6.05;4.10;;;;;;;13.38;52.82;96805.38;1738204;81;21032;-63
2022/04/08 04:43:02;;;;;;;5.30;3.83;;;;;;;13.39;53.11;96807.52;1738583;81;21015;-64
2022/04/08 04:45:30;;;;;;;5.17;3.40;;;;;;;13.43;53.42;96806.76;1738285;81;20886;-63
2022/04/08 04:47:57;;;;;;;6.10;4.05;;;;;;;13.48;53.65;96801.98;1737591;82;21327;-64
2022/04/08 04:50:24;;;;;;;4.70;3.62;;;;;;;13.56;53.78;96811.70;1737842;81;20985;-65
2022/04/08 04:52:52;;;;;;;6.05;3.45;;;;;;;13.67;53.83;96814.45;1727030;81;21401;-66
2022/04/08 04:55:19;;;;;;;4.83;3.55;;;;;;;13.74;53.91;96814.52;1738364;81;20902;-65
2022/04/08 04:57:48;;;;;;;6.00;3.83;;;;;;;13.81;54.01;96807.13;1738527;81;21461;-64
2022/04/08 05:00:16;;;;;;;3.80;3.42;;;;;;;13.90;54.05;96817.60;1738300;81;21235;-62
2022/04/08 05:02:44;;;;;;;4.12;3.45;;;;;;;14.02;54.01;96813.43;1738678;81;21542;-64
2022/04/08 05:05:11;;;;;;;4.37;3.62;;;;;;;14.09;54.04;96819.36;1741070;81;21073;-64
2022/04/08 05:07:40;;;;;;;4.05;3.62;;;;;;;14.15;54.06;96818.34;1754698;81;20950;-63
2022/04/08 05:10:07;;;;;;;5.58;3.33;;;;;;;14.24;54.04;96825.62;1751522;81;20986;-66
2022/04/08 05:12:35;;;;;;;4.92;3.35;;;;;;;14.40;53.90;96836.44;1756508;81;21273;-66
2022/04/08 05:15:09;;;;;;;5.20;3.20;;;;;;;14.51;53.99;96832.25;1756751;81;22319;-64
2022/04/08 05:17:38;;;;;;;4.78;2.87;;;;;;;14.58;54.05;96831.48;1751111;81;21060;-66
2022/04/08 05:20:07;;;;;;;3.62;3.17;;;;;;;14.65;54.15;96831.27;1751657;81;21116;-63
2022/04/08 05:22:36;;;;;;;4.10;3.00;;;;;;;14.70;54.15;96834.74;1755761;81;21563;-65
2022/04/08 05:25:04;;;;;;;3.47;3.17;;;;;;;14.81;54.06;96851.14;1756625;81;21841;-64
2022/04/08 05:27:39;;;;;;;3.12;2.77;;;;;;;14.84;54.21;96847.13;1745387;81;20952;-67
2022/04/08 05:30:08;;;;;;;4.78;2.62;;;;;;;14.89;54.47;96839.13;1719448;83;20970;-66
2022/04/08 05:32:37;;;;;;;3.15;2.80;;;;;;;14.90;54.72;96835.39;1753175;81;21560;-65
2022/04/08 05:35:05;;;;;;;4.58;3.27;;;;;;;14.91;54.83;96830.33;1745265;81;21610;-67
2022/04/08 05:37:42;;;;;;;4.00;3.10;;;;;;;14.93;54.93;96825.51;1756461;81;21563;-66
2022/04/08 05:40:14;;;;;;;2.98;2.67;;;;;;;14.94;55.04;96824.42;1742900;81;20943;-63
2022/04/08 05:42:46;;;;;;;3.22;2.92;;;;;;;14.98;55.07;96824.72;1754609;81;20922;-65
2022/04/08 05:45:18;;;;;;;5.40;3.20;;;;;;;14.99;55.03;96828.45;1709385;83;20911;-65
2022/04/08 05:47:54;;;;;;;3.72;3.27;;;;;;;15.00;55.03;96830.61;1755911;81;21488;-64
2022/04/08 05:50:19;;;;;;;4.45;3.60;;;;;;;14.97;55.15;96829.78;1750724;81;21450;-64
2022/04/08 05:52:48;;;;;;;3.35;3.02;;;;;;;14.95;55.31;96827.91;1754601;81;21032;-64
2022/04/08 05:55:15;;;;;;;3.50;3.20;;;;;;;14.94;55.43;96835.69;1756626;81;20993;-65
2022/04/08 05:57:42;;;;;;;4.62;3.42;;;;;;;14.93;55.54;96842.91;1755889;81;20914;-63
2022/04/08 06:00:12;;;;;;;4.03;3.60;;;;;;;14.92;55.70;96837.80;1738022;81;20883;-65
2022/04/08 06:02:45;;;;;;;3.72;3.42;;;;;;;14.89;55.88;96834.33;1756171;81;21162;-65
2022/04/08 06:05:12;;;;;;;4.40;3.22;;;;;;;14.89;56.00;96838.34;1754420;81;20918;-63
2022/04/08 06:07:51;;;;;;;3.85;3.15;;;;;;;14.84;56.20;96839.91;1705783;83;21524;-64
2022/04/08 06:10:22;;;;;;;3.75;3.37;;;;;;;14.84;56.36;96837.23;1683564;84;20914;-63
2022/04/08 06:12:50;;;;;;;3.65;2.98;;;;;;;14.87;56.43;96838.59;1674113;85;20972;-66
2022/04/08 06:15:18;;;;;;;6.78;3.55;;;;;;;14.87;56.44;96847.14;1692535;84;21915;-66
2022/04/08 06:17:46;;;;;;;3.83;3.40;;;;;;;14.86;56.49;96842.31;1692125;84;20957;-65
2022/04/08 06:20:18;;;;;;;3.98;3.62;;;;;;;14.83;56.57;96846.32;1692330;84;20978;-66
2022/04/08 06:22:47;;;;;;;3.95;3.65;;;;;;;14.85;56.66;96848.75;1691132;84;21009;-64
2022/04/08 06:25:17;;;;;;;4.47;4.00;;;;;;;14.83;56.75;96849.55;1686135;84;21105;-64
2022/04/08 06:27:47;;;;;;;3.98;3.67;;;;;;;14.83;56.98;96856.24;1692173;84;20930;-64
2022/04/08 06:30:15;;;;;;;4.35;3.83;;;;;;;14.83;56.98;96862.94;1691278;84;21585;-66
2022/04/08 06:32:43;;;;;;;4.42;4.05;;;;;;;14.84;57.03;96869.36;1692179;84;20950;-67
2022/04/08 06:35:12;;;;;;;5.42;3.55;;;;;;;14.82;57.08;96874.17;1688751;84;20964;-64
2022/04/08 06:37:39;;;;;;;4.08;3.77;;;;;;;14.81;57.23;96877.90;1674512;85;21010;-65
2022/04/08 06:40:09;;;;;;;5.87;4.15;;;;;;;14.78;57.59;96893.13;1691754;84;21300;-63
2022/04/08 06:42:38;;;;;;;4.75;3.37;;;;;;;14.81;57.99;96907.86;1692419;84;20942;-65
2022/04/08 06:45:07;;;;;;;3.83;2.95;;;;;;;14.81;57.77;96923.92;1692189;84;20894;-63
2022/04/08 06:47:46;;;;;;;3.25;2.90;;;;;;;14.75;58.52;96952.55;1692012;84;21042;-65
2022/04/08 06:50:13;;;;;;;2.77;2.55;;;;;;;14.75;58.82;96973.95;1682378;84;20926;-63
2022/04/08 06:52:40;;;;;;;2.42;2.10;;;;;;;14.74;58.21;96983.56;1702485;83;21332;-65
2022/04/08 06:55:09;;;;;;;2.00;1.80;;;;;;;14.63;57.68;96997.39;1681150;84;20950;-64
2022/04/08 06:57:36;;;;;;;2.00;1.75;;;;;;;14.58;57.45;96997.35;1692394;84;20918;-66
2022/04/08 07:00:10;;;;;;;1.87;1.37;;;;;;;14.54;57.29;96990.91;1692256;84;21034;-65
2022/04/08 07:02:37;;;;;;;2.47;1.07;;;;;;;14.51;57.08;96989.27;1692351;84;21082;-64
2022/04/08 07:05:07;;;;;;;1.35;1.25;;;;;;;14.51;56.94;96999.44;1700528;83;21212;-67
2022/04/08 07:07:37;;;;;;;1.57;1.47;;;;;;;14.46;56.87;97011.44;1694119;83;21021;-66
2022/04/08 07:10:06;;;;;;;1.40;1.30;;;;;;;14.44;57.06;97016.23;1694218;84;21547;-63
2022/04/08 07:12:35;;;;;;;1.92;1.40;;;;;;;14.45;57.04;97015.69;1691413;84;21538;-63
2022/04/08 07:15:02;;;;;;;1.90;1.40;;;;;;;14.44;57.16;97034.15;1675490;85;21528;-72
2022/04/08 07:17:33;;;;;;;2.30;1.40;;;;;;;14.41;57.47;97041.34;1694561;84;21363;-66
2022/04/08 07:20:00;;;;;;;1.55;1.40;;;;;;;14.37;57.29;97054.40;1693743;84;20906;-66
2022/04/08 07:22:27;;;;;;;1.70;1.00;;;;;;;14.32;57.16;97051.67;1694283;84;20950;-64
2022/04/08 07:24:55;;;;;;;2.10;1.52;;;;;;;14.23;56.53;97063.31;1666492;84;21044;-67
2022/04/08 07:27:22;;;;;;;3.12;1.60;;;;;;;14.23;56.27;97067.32;1693578;84;21563;-63
2022/04/08 07:29:50;;;;;;;3.52;1.75;;;;;;;14.24;56.10;97051.57;1693904;84;21151;-66
2022/04/08 07:32:20;;;;;;;3.20;1.10;;;;;;;14.23;56.19;97041.92;1694266;84;20942;-62
2022/04/08 07:34:52;;;;;;;1.65;1.17;;;;;;;14.36;56.33;97022.05;1694136;84;21543;-68
2022/04/08 07:37:28;;;;;;;5.60;1.87;;;;;;;14.54;56.39;97023.02;1694827;84;20918;-66
2022/04/08 07:39:55;;;;;;;1.40;0.95;;;;;;;14.65;56.03;97018.00;1694218;84;21057;-62
2022/04/08 07:42:22;;;;;;;1.70;1.32;;;;;;;14.71;55.44;97020.20;1694179;84;22258;-65
2022/04/08 07:44:48;;;;;;;3.17;1.50;;;;;;;14.72;55.07;97040.55;1694077;84;20930;-63
2022/04/08 07:47:16;;;;;;;1.85;1.37;;;;;;;14.65;54.47;97068.06;1694204;84;20922;-67
2022/04/08 07:49:43;;;;;;;1.37;1.10;;;;;;;14.48;54.10;97088.22;1694252;84;21010;-64
2022/04/08 07:52:10;;;;;;;1.37;0.90;;;;;;;14.29;54.30;97089.58;1675868;85;21494;-67
2022/04/08 07:54:37;;;;;;;1.02;0.70;;;;;;;14.13;54.12;97106.53;1686817;85;21259;-64
2022/04/08 07:57:04;;;;;;;1.40;1.10;;;;;;;13.94;54.14;97112.72;1694120;84;21005;-64
2022/04/08 07:59:32;;;;;;;1.40;0.70;;;;;;;13.83;54.40;97118.98;1694406;84;20906;-66
2022/04/08 08:01:59;;;;;;;1.40;1.25;;;;;;;13.79;54.63;97127.75;1694121;84;20938;-66
2022/04/08 08:04:27;;;;;;;1.30;1.00;;;;;;;13.70;54.81;97131.88;1694259;84;20953;-63
2022/04/08 08:06:54;;;;;;;0.88;0.80;;;;;;;13.64;54.86;97125.66;1697014;83;21213;-65
2022/04/08 08:09:21;;;;;;;1.42;0.88;;;;;;;13.58;55.09;97111.41;1700191;84;20882;-64
2022/04/08 08:11:49;;;;;;;1.35;1.10;;;;;;;13.50;55.42;97095.02;1700221;84;20954;-64
2022/04/08 08:14:16;;;;;;;1.77;1.30;;;;;;;13.67;55.59;97093.11;1700184;84;20981;-65
2022/04/08 08:16:43;;;;;;;2.45;1.30;;;;;;;14.23;55.96;97075.34;1700211;84;20910;-67
2022/04/08 08:19:12;;;;;;;2.33;1.20;;;;;;;14.54;56.12;97082.39;1689682;84;20922;-64
2022/04/08 08:21:39;;;;;;;4.58;1.40;;;;;;;14.99;55.07;97061.92;1681955;85;21439;-63
2022/04/08 08:24:06;;;;;;;1.72;1.20;;;;;;;15.34;54.71;97050.92;1699776;84;21025;-64
2022/04/08 08:26:34;;;;;;;2.10;1.17;;;;;;;15.87;53.15;97048.55;1700346;84;21444;-63
2022/04/08 08:29:01;;;;;;;2.45;1.32;;;;;;;16.01;51.79;97052.34;1700336;84;21037;-66
2022/04/08 08:31:28;;;;;;;1.57;1.07;;;;;;;16.17;50.60;97066.61;1700477;84;21244;-66
2022/04/08 08:33:56;;;;;;;3.60;1.60;;;;;;;16.76;49.30;97101.95;1700405;84;21040;-63
2022/04/08 08:36:25;;;;;;;2.52;1.50;;;;;;;16.54;49.32;97096.80;1700338;84;21016;-67
2022/04/08 08:38:52;;;;;;;2.30;1.62;;;;;;;16.50;48.33;97102.38;1700323;84;20926;-67
2022/04/08 08:41:19;;;;;;;2.75;1.82;;;;;;;16.33;48.37;97105.83;1700452;84;20893;-65
2022/04/08 08:43:49;;;;;;;1.02;0.93;;;;;;;16.13;48.28;97109.79;1700456;84;21256;-66
2022/04/08 08:46:17;;;;;;;2.60;1.47;;;;;;;15.82;48.04;97106.17;1700247;84;21006;-66
2022/04/08 08:48:45;;;;;;;2.35;1.60;;;;;;;15.53;48.64;97102.77;1700362;84;21135;-63
2022/04/08 08:51:13;;;;;;;2.50;1.50;;;;;;;15.37;49.05;97073.70;1700401;84;20949;-64
2022/04/08 08:53:41;;;;;;;2.12;1.62;;;;;;;15.23;49.38;97101.45;1700423;84;20893;-64
2022/04/08 08:56:08;;;;;;;3.47;1.57;;;;;;;15.12;49.51;97104.33;1700313;84;21922;-65
2022/04/08 08:58:36;;;;;;;2.58;1.52;;;;;;;15.04;50.03;97119.53;1700568;84;20933;-65
2022/04/08 09:01:06;;;;;;;2.58;1.30;;;;;;;14.87;50.50;97133.54;1700422;84;21036;-65
2022/04/08 09:03:34;;;;;;;3.10;1.70;;;;;;;14.68;51.13;97133.91;1700351;84;21471;-63
2022/04/08 09:06:08;;;;;;;3.15;2.00;;;;;;;14.51;51.52;97135.87;1700319;84;21011;-64
2022/04/08 09:08:36;;;;;;;3.70;2.20;;;;;;;14.36;51.96;97124.20;1694678;84;21571;-65
2022/04/08 09:11:05;;;;;;;4.05;2.30;;;;;;;14.31;52.37;97112.08;1694265;84;21267;-65
2022/04/08 09:13:44;;;;;;;3.65;1.70;;;;;;;14.34;52.70;97111.06;1694577;84;20938;-63
2022/04/08 09:16:13;;;;;;;4.62;2.30;;;;;;;14.65;52.55;97100.95;1684211;84;20895;-63
2022/04/08 09:18:44;;;;;;;3.10;1.50;;;;;;;15.31;51.91;97084.91;1694594;84;20905;-65
2022/04/08 09:21:22;;;;;;;1.20;0.90;;;;;;;17.09;49.25;97082.63;1669492;84;21250;-65
2022/04/08 09:23:53;;;;;;;2.65;1.90;;;;;;;18.19;47.14;97083.48;1694143;84;20878;-61
2022/04/08 09:26:21;;;;;;;1.82;1.30;;;;;;;19.99;43.94;97076.14;1694568;84;20903;-64
2022/04/08 09:28:53;;;;;;;2.15;0.80;;;;;;;21.06;41.34;97074.45;1694300;84;20949;-64
2022/04/08 09:31:23;;;;;;;2.67;1.00;;;;;;;22.49;37.60;97057.94;1664205;86;21487;-63
2022/04/08 09:33:53;;;;;;;2.27;0.82;;;;;;;23.56;35.50;97063.27;1691459;84;21254;-64
2022/04/08 09:36:31;;;;;;;1.70;0.90;;;;;;;24.33;32.72;97045.11;1694427;84;21417;-65
2022/04/08 09:39:03;;;;;;;0.78;0.70;;;;;;;24.21;31.97;97059.33;1694233;84;21005;-65
2022/04/08 09:41:42;;;;;;;2.45;0.93;;;;;;;24.54;30.84;97053.71;1694227;84;20965;-65
2022/04/08 09:44:11;;;;;;;2.00;1.25;;;;;;;24.71;30.77;97063.01;1680470;84;20902;-65
2022/04/08 09:46:39;;;;;;;1.20;0.93;;;;;;;24.21;31.22;97066.67;1694366;84;21887;-66
2022/04/08 09:49:08;;;;;;;1.45;0.90;;;;;;;24.87;30.56;97075.05;1694021;84;20957;-67
2022/04/08 09:51:38;;;;;;;1.95;1.32;;;;;;;24.81;31.38;97074.95;1694334;84;20993;-64
2022/04/08 09:54:12;;;;;;;3.05;1.20;;;;;;;25.67;30.01;97069.69;1694260;84;21543;-66
2022/04/08 09:56:41;;;;;;;1.47;1.10;;;;;;;25.76;29.02;97076.44;1694381;84;20938;-65
2022/04/08 09:59:14;;;;;;;1.80;0.98;;;;;;;25.92;27.70;97072.62;1683198;84;21206;-64
2022/04/08 10:01:46;;;;;;;1.95;1.00;;;;;;;25.89;26.91;97074.66;1694318;84;20894;-64
2022/04/08 10:04:16;;;;;;;2.62;1.00;;;;;;;25.70;26.31;97075.84;1684566;84;21037;-66
2022/04/08 10:06:45;;;;;;;4.60;1.62;;;;;;;25.51;26.14;97079.48;1698392;83;21124;-65
2022/04/08 10:09:15;;;;;;;2.17;1.52;;;;;;;25.13;26.50;97085.36;1718835;83;20899;-62
2022/04/08 10:12:03;;;;;;;2.12;1.10;;;;;;;24.43;27.10;97072.79;1755887;81;21154;-65
2022/04/08 10:15:12;;;;;;;2.22;1.10;;;;;;;24.09;27.00;97082.20;1738819;81;20943;-66
2022/04/08 10:17:40;;;;;;;1.98;0.90;;;;;;;23.83;27.26;97091.56;1751095;81;20926;-65
2022/04/08 10:20:21;;;;;;;2.83;0.70;;;;;;;23.89;27.71;97090.88;1726742;81;20961;-64
2022/04/08 10:22:49;;;;;;;2.65;1.10;;;;;;;24.07;27.91;97083.05;1755314;81;21728;-64
2022/04/08 10:25:26;;;;;;;6.03;1.17;;;;;;;24.17;27.72;97096.37;1755555;81;20994;-63
2022/04/08 10:27:56;;;;;;;2.10;1.20;;;;;;;24.12;27.23;97078.05;1756033;81;21015;-63
2022/04/08 10:30:25;;;;;;;2.83;1.10;;;;;;;23.87;27.24;97089.04;1756448;81;20930;-66
2022/04/08 10:33:01;;;;;;;4.10;1.00;;;;;;;23.74;28.02;97067.67;1755874;81;21038;-64
2022/04/08 10:35:31;;;;;;;1.95;1.12;;;;;;;23.76;27.85;97091.78;1754551;81;20973;-64
2022/04/08 10:38:05;;;;;;;3.40;1.35;;;;;;;23.80;27.25;97087.34;1755174;81;21183;-64
2022/04/08 10:40:46;;;;;;;3.22;0.90;;;;;;;23.85;27.42;97108.92;1718841;83;21541;-63
2022/04/08 10:43:17;;;;;;;2.52;0.80;;;;;;;23.76;26.98;97086.34;1718637;80;21025;-65
2022/04/08 10:45:57;;;;;;;1.52;0.93;;;;;;;23.51;27.52;97095.97;1756615;81;20962;-63
2022/04/08 10:48:32;;;;;;;6.75;1.55;;;;;;;23.26;27.93;97120.41;1756479;81;20847;-64
2022/04/08 10:51:14;;;;;;;1.80;1.10;;;;;;;23.16;28.32;97121.20;1755206;81;24096;-67
2022/04/08 10:53:42;;;;;;;4.17;1.00;;;;;;;22.78;28.79;97124.80;1755674;81;21437;-65
2022/04/08 10:56:14;;;;;;;2.08;1.10;;;;;;;22.38;29.16;97133.75;1741770;81;21425;-64
2022/04/08 10:58:49;;;;;;;4.78;1.20;;;;;;;22.01;29.24;97143.67;1718914;83;20903;-64
2022/04/08 11:01:22;;;;;;;3.52;1.25;;;;;;;21.71;29.55;97138.79;1745688;81;21018;-64
2022/04/08 11:04:01;;;;;;;3.87;1.25;;;;;;;21.39;30.32;97157.17;1755863;81;21114;-66
2022/04/08 11:06:34;;;;;;;1.77;1.05;;;;;;;21.12;29.75;97140.05;1755522;81;20922;-66
2022/04/08 11:09:12;;;;;;;1.82;1.20;;;;;;;20.82;29.18;97148.01;1736339;81;21057;-63
2022/04/08 11:11:43;;;;;;;4.58;1.20;;;;;;;20.64;29.84;97153.66;1735602;82;20942;-65
2022/04/08 11:14:13;;;;;;;3.40;1.00;;;;;;;20.59;30.65;97150.21;1724200;82;20875;-66
2022/04/08 11:16:44;;;;;;;3.52;1.07;;;;;;;20.67;30.76;97146.33;1735827;82;21149;-66
2022/04/08 11:19:13;;;;;;;2.47;1.27;;;;;;;20.67;30.29;97140.92;1724610;82;20891;-64
2022/04/08 11:21:43;;;;;;;4.17;1.05;;;;;;;20.72;29.51;97156.25;1735743;82;20938;-66
2022/04/08 11:24:16;;;;;;;7.28;0.85;;;;;;;20.79;29.41;97149.39;1724659;82;20938;-65
2022/04/08 11:26:53;;;;;;;3.35;0.95;;;;;;;20.83;28.30;97159.86;1735921;82;20937;-66
2022/04/08 11:29:24;;;;;;;;;;;;;;;20.92;27.83;97154.08;1729064;82;21186;-65
2022/04/08 11:31:53;;;;;;;2.20;0.80;;;;;;;20.94;26.82;97160.52;1735555;82;20427;-65
2022/04/08 11:34:25;;;;;;;2.90;0.93;;;;;;;20.88;27.36;97171.95;1735590;82;20887;-65
2022/04/08 11:36:55;;;;;;;4.85;0.70;;;;;;;20.89;27.58;97169.52;1736074;82;20998;-65
2022/04/08 11:39:26;;;;;;;2.55;0.70;;;;;;;20.86;27.79;97191.71;1735795;82;21512;-66
2022/04/08 11:41:56;;;;;;;2.83;0.90;;;;;;;20.81;28.12;97201.23;1736197;82;21140;-65
2022/04/08 11:44:24;;;;;;;2.20;1.17;;;;;;;20.72;28.22;97189.48;1735484;82;20964;-65